Time;durP1;ratioP1;P1;durP2;ratioP2;P2;SDS_P1;SDS_P2;PMS_P1;PMS_P2;Temp;Humidity;BMP_temperature;BMP_pressure;BME280_temperature;BME280_humidity;BME280_pressure;Samples;Min_cycle;Max_cycle;Signal;HPM_P1;HPM_P2
2023/12/30 00:01:45;;;;;;;0.50;0.50;;;9.60;99.90;;;;;;5091721;28;20032;-69
2023/12/30 00:04:12;;;;;;;5.85;0.77;;;9.50;99.90;;;;;;5092751;28;20028;-69
2023/12/30 00:06:38;;;;;;;0.80;0.40;;;9.50;99.90;;;;;;5092846;28;20034;-70
2023/12/30 00:09:04;;;;;;;0.03;0.03;;;9.50;99.90;;;;;;5093101;28;20538;-69
2023/12/30 00:11:30;;;;;;;5.85;5.03;;;9.50;99.90;;;;;;5091707;28;20032;-69
2023/12/30 00:13:56;;;;;;;0.70;0.22;;;9.40;99.90;;;;;;5091552;28;20081;-69
2023/12/30 00:16:22;;;;;;;7.80;1.10;;;9.40;99.90;;;;;;5092727;28;20043;-69
2023/12/30 00:18:48;;;;;;;0.10;0.10;;;9.50;99.90;;;;;;5081646;28;20029;-70
2023/12/30 00:21:23;;;;;;;8.30;1.20;;;9.40;99.90;;;;;;5089637;28;20492;-69
2023/12/30 00:23:49;;;;;;;20.58;1.42;;;9.50;99.90;;;;;;5091547;28;20028;-69
2023/12/30 00:26:22;;;;;;;1.20;0.98;;;9.40;99.90;;;;;;5092698;28;20417;-69
2023/12/30 00:29:00;;;;;;;13.57;1.48;;;9.40;99.90;;;;;;5092988;28;20039;-69
2023/12/30 00:31:28;;;;;;;6.47;2.03;;;9.40;99.90;;;;;;5091279;28;20028;-69
2023/12/30 00:34:01;;;;;;;0.30;0.22;;;9.30;99.90;;;;;;5092893;28;20099;-70
2023/12/30 00:36:28;;;;;;;7.03;0.80;;;9.40;99.90;;;;;;5090891;28;20472;-71
2023/12/30 00:38:55;;;;;;;8.50;0.73;;;9.40;99.90;;;;;;5092856;28;20032;-68
2023/12/30 00:41:21;;;;;;;8.43;0.77;;;9.30;99.90;;;;;;5091737;28;20024;-69
2023/12/30 00:43:48;;;;;;;1.45;0.88;;;9.30;99.90;;;;;;5106634;22;20051;-69
2023/12/30 00:46:14;;;;;;;0.00;0.00;;;9.20;99.90;;;;;;5086673;28;20033;-70
2023/12/30 00:48:40;;;;;;;0.10;0.10;;;9.30;99.90;;;;;;5096602;28;20020;-69
2023/12/30 00:51:06;;;;;;;12.80;1.65;;;9.30;99.90;;;;;;5112879;28;20031;-70
2023/12/30 00:53:31;;;;;;;0.03;0.03;;;9.20;99.90;;;;;;5112755;28;20380;-69
2023/12/30 00:55:58;;;;;;;0.45;0.45;;;9.30;99.90;;;;;;5111656;28;20038;-70
2023/12/30 00:58:24;;;;;;;0.00;0.00;;;9.30;99.90;;;;;;5112801;28;20025;-70
2023/12/30 01:00:51;;;;;;;0.30;0.30;;;9.40;99.90;;;;;;5116889;28;20080;-70
2023/12/30 01:03:17;;;;;;;0.75;0.38;;;9.40;99.90;;;;;;5116477;28;20026;-70
2023/12/30 01:05:44;;;;;;;0.00;0.00;;;9.50;99.90;;;;;;5116535;28;20066;-71
2023/12/30 01:08:10;;;;;;;2.60;0.90;;;9.40;99.90;;;;;;5115300;28;20019;-70
2023/12/30 01:10:36;;;;;;;0.10;0.10;;;9.30;99.90;;;;;;5115201;28;20032;-69
2023/12/30 01:13:05;;;;;;;0.00;0.00;;;9.30;99.90;;;;;;5116480;28;20038;-71
2023/12/30 01:15:31;;;;;;;0.52;0.20;;;9.30;99.90;;;;;;5085714;28;20032;-70
2023/12/30 01:17:57;;;;;;;5.82;0.63;;;9.20;99.90;;;;;;5096089;28;20047;-70
2023/12/30 01:20:23;;;;;;;0.00;0.00;;;9.30;99.90;;;;;;5106464;28;20452;-69
2023/12/30 01:22:50;;;;;;;1.73;0.30;;;9.30;99.90;;;;;;5110246;28;20035;-69
2023/12/30 01:25:16;;;;;;;6.15;1.48;;;9.30;99.90;;;;;;5084376;28;20024;-70
2023/12/30 01:27:42;;;;;;;0.13;0.13;;;9.20;99.90;;;;;;5081500;28;20051;-70
2023/12/30 01:30:08;;;;;;;6.50;1.33;;;9.20;99.90;;;;;;5102768;28;20023;-69
2023/12/30 01:32:34;;;;;;;0.38;0.38;;;9.10;99.90;;;;;;5114975;28;20119;-69
2023/12/30 01:35:00;;;;;;;0.45;0.40;;;9.10;99.90;;;;;;5114310;28;20119;-70
2023/12/30 01:37:26;;;;;;;4.63;2.13;;;9.10;99.90;;;;;;5114785;28;20040;-70
2023/12/30 01:39:52;;;;;;;0.40;0.40;;;9.20;99.90;;;;;;5116075;28;20031;-71
2023/12/30 01:42:18;;;;;;;1.70;0.15;;;9.10;99.90;;;;;;5116094;28;20024;-71
2023/12/30 01:44:45;;;;;;;0.55;0.17;;;9.10;99.90;;;;;;5115449;28;20483;-70
2023/12/30 01:47:11;;;;;;;0.55;0.20;;;9.10;99.90;;;;;;5114581;28;20034;-70
2023/12/30 01:49:37;;;;;;;0.00;0.00;;;9.20;99.90;;;;;;5114255;28;20080;-70
2023/12/30 01:52:05;;;;;;;0.25;0.25;;;9.20;99.90;;;;;;5114765;28;20019;-70
2023/12/30 01:54:31;;;;;;;7.30;0.93;;;9.20;99.90;;;;;;5115608;28;20096;-69
2023/12/30 01:56:59;;;;;;;5.25;1.08;;;9.30;99.90;;;;;;5114234;28;20031;-69
2023/12/30 01:59:29;;;;;;;0.63;0.50;;;9.30;99.90;;;;;;5114210;28;20055;-69
2023/12/30 02:01:56;;;;;;;0.50;0.50;;;9.30;99.90;;;;;;5093191;28;20507;-70
2023/12/30 02:04:24;;;;;;;2.42;0.57;;;9.20;99.90;;;;;;5097055;28;20411;-69
2023/12/30 02:06:51;;;;;;;2.33;1.15;;;9.10;99.90;;;;;;5099739;28;20421;-69
2023/12/30 02:09:16;;;;;;;31.35;2.20;;;9.00;99.90;;;;;;5109774;28;20062;-70
2023/12/30 02:11:43;;;;;;;0.08;0.08;;;9.10;99.90;;;;;;5086089;28;20039;-68
2023/12/30 02:14:23;;;;;;;0.75;0.57;;;9.00;99.90;;;;;;5113694;28;20032;-69
2023/12/30 02:16:49;;;;;;;0.43;0.43;;;9.10;99.90;;;;;;5115009;28;20031;-70
2023/12/30 02:19:15;;;;;;;0.00;0.00;;;9.10;99.90;;;;;;5099382;28;20028;-69
2023/12/30 02:21:42;;;;;;;9.90;2.28;;;9.00;99.90;;;;;;5105569;28;20039;-70
2023/12/30 02:24:07;;;;;;;0.10;0.10;;;9.00;99.90;;;;;;5092992;28;20369;-70
2023/12/30 02:26:35;;;;;;;0.00;0.00;;;9.10;99.90;;;;;;5113798;28;20472;-70
2023/12/30 02:29:02;;;;;;;0.55;0.45;;;9.20;99.90;;;;;;5113631;28;20031;-70
2023/12/30 02:31:28;;;;;;;3.83;1.48;;;9.10;99.90;;;;;;5108889;28;20027;-70
2023/12/30 02:33:54;;;;;;;0.80;0.60;;;9.30;99.90;;;;;;5101683;22;20495;-69
2023/12/30 02:36:20;;;;;;;0.00;0.00;;;9.40;99.90;;;;;;5109563;28;20404;-70
2023/12/30 02:38:46;;;;;;;13.25;1.48;;;9.20;99.90;;;;;;5096648;28;20100;-69
2023/12/30 02:41:11;;;;;;;0.70;0.40;;;9.10;99.90;;;;;;5096480;28;20080;-70
2023/12/30 02:44:00;;;;;;;2.47;1.10;;;9.00;99.90;;;;;;5107203;28;20020;-69
2023/12/30 02:46:26;;;;;;;0.10;0.10;;;8.90;99.90;;;;;;5092534;28;20020;-70
2023/12/30 02:48:52;;;;;;;2.40;0.22;;;9.00;99.90;;;;;;5101677;28;20491;-70
2023/12/30 02:51:19;;;;;;;0.00;0.00;;;9.10;99.90;;;;;;5101050;28;20028;-69
2023/12/30 02:53:46;;;;;;;5.93;2.55;;;9.10;99.90;;;;;;5092756;28;20024;-69
2023/12/30 02:56:20;;;;;;;10.23;1.15;;;9.00;99.90;;;;;;5075813;28;20042;-70
2023/12/30 02:58:56;;;;;;;0.00;0.00;;;9.10;99.90;;;;;;5094169;28;20030;-70
2023/12/30 03:01:27;;;;;;;0.40;0.20;;;9.00;99.90;;;;;;5092498;28;20064;-69
2023/12/30 03:03:54;;;;;;;3.15;0.82;;;9.10;99.90;;;;;;5093843;28;20103;-69
2023/12/30 03:06:21;;;;;;;9.85;1.35;;;9.00;99.90;;;;;;5092654;28;20039;-69
2023/12/30 03:08:48;;;;;;;0.30;0.30;;;9.00;99.90;;;;;;5109446;28;20054;-71
2023/12/30 03:11:14;;;;;;;0.10;0.10;;;9.00;99.90;;;;;;5092467;28;20369;-69
2023/12/30 03:13:41;;;;;;;7.82;0.90;;;9.10;99.90;;;;;;5092197;28;20111;-70
2023/12/30 03:16:08;;;;;;;14.70;0.85;;;9.10;99.90;;;;;;5109127;28;20070;-69
2023/12/30 03:18:33;;;;;;;1.30;0.70;;;9.10;99.90;;;;;;5093979;28;20111;-70
2023/12/30 03:20:59;;;;;;;0.80;0.55;;;9.20;99.90;;;;;;5109225;28;20111;-70
2023/12/30 03:23:25;;;;;;;1.95;0.55;;;9.10;99.90;;;;;;5093149;28;20023;-70
2023/12/30 03:25:51;;;;;;;3.30;0.10;;;9.10;99.90;;;;;;5109180;28;20051;-69
2023/12/30 03:28:18;;;;;;;0.80;0.35;;;9.20;99.90;;;;;;5092467;28;20067;-70
2023/12/30 03:30:45;;;;;;;7.57;0.50;;;9.30;99.90;;;;;;5108733;28;20055;-70
2023/12/30 03:33:12;;;;;;;0.10;0.10;;;9.20;99.90;;;;;;5093188;28;20089;-70
2023/12/30 03:35:38;;;;;;;0.63;0.10;;;9.10;99.90;;;;;;5093439;28;20024;-70
2023/12/30 03:38:05;;;;;;;1.25;0.40;;;9.10;99.90;;;;;;5093138;28;20028;-70
2023/12/30 03:40:31;;;;;;;15.20;1.15;;;9.10;99.90;;;;;;5092183;28;20039;-70
2023/12/30 03:42:57;;;;;;;4.85;0.40;;;9.00;99.90;;;;;;5093126;28;20035;-71
2023/12/30 03:45:23;;;;;;;1.55;0.20;;;9.10;99.90;;;;;;5108856;28;20032;-69
2023/12/30 03:47:48;;;;;;;6.53;1.05;;;9.00;99.90;;;;;;5108895;28;20392;-70
2023/12/30 03:50:14;;;;;;;1.55;0.52;;;9.00;99.90;;;;;;5093125;28;20023;-69
2023/12/30 03:52:40;;;;;;;12.85;2.67;;;9.00;99.90;;;;;;5093353;28;20036;-70
2023/12/30 03:55:06;;;;;;;5.47;0.10;;;9.00;99.90;;;;;;5108588;28;20089;-69
2023/12/30 03:57:32;;;;;;;13.48;0.60;;;9.10;99.90;;;;;;5093066;28;20423;-69
2023/12/30 03:59:58;;;;;;;4.47;1.10;;;9.00;99.90;;;;;;5092357;28;20083;-70
2023/12/30 04:02:24;;;;;;;3.30;1.02;;;9.00;99.90;;;;;;5092952;28;20114;-70
2023/12/30 04:04:50;;;;;;;0.10;0.10;;;9.00;99.90;;;;;;5093070;28;20035;-70
2023/12/30 04:07:16;;;;;;;0.10;0.10;;;8.90;99.90;;;;;;5091598;28;20101;-70
2023/12/30 04:09:41;;;;;;;8.32;0.88;;;9.00;99.90;;;;;;5092965;28;20547;-70
2023/12/30 04:12:07;;;;;;;2.63;0.80;;;8.90;99.90;;;;;;5092706;28;20024;-70
2023/12/30 04:14:33;;;;;;;15.70;1.92;;;8.90;99.90;;;;;;5091178;28;20468;-70
2023/12/30 04:16:59;;;;;;;6.32;1.27;;;8.90;99.90;;;;;;5108322;28;20040;-69
2023/12/30 04:19:25;;;;;;;3.15;1.40;;;8.90;99.90;;;;;;5071307;28;20021;-69
2023/12/30 04:21:51;;;;;;;3.38;0.88;;;8.80;99.90;;;;;;5083462;28;20040;-69
2023/12/30 04:24:21;;;;;;;0.30;0.28;;;8.90;99.90;;;;;;5092502;28;20073;-69
2023/12/30 04:26:47;;;;;;;14.75;1.75;;;8.80;99.90;;;;;;5074787;28;20496;-69
2023/12/30 04:29:13;;;;;;;6.43;1.83;;;8.80;99.90;;;;;;5092373;28;20020;-69
2023/12/30 04:31:39;;;;;;;3.33;1.15;;;8.80;99.90;;;;;;5074521;28;20032;-69
2023/12/30 04:34:05;;;;;;;4.07;1.13;;;8.80;99.90;;;;;;5108936;28;20131;-69
2023/12/30 04:36:30;;;;;;;0.75;0.38;;;8.70;99.90;;;;;;5112323;28;20032;-69
2023/12/30 04:38:56;;;;;;;2.83;0.70;;;8.80;99.90;;;;;;5075168;28;20024;-69
2023/12/30 04:41:22;;;;;;;0.47;0.32;;;8.70;99.90;;;;;;5094905;28;20023;-69
2023/12/30 04:43:48;;;;;;;0.73;0.73;;;8.80;99.90;;;;;;5096199;28;20376;-69
2023/12/30 04:46:14;;;;;;;0.10;0.10;;;8.70;99.90;;;;;;5095146;28;20024;-70
2023/12/30 04:48:40;;;;;;;1.88;0.88;;;8.70;99.90;;;;;;5096580;28;20489;-69
2023/12/30 04:51:06;;;;;;;0.00;0.00;;;8.60;99.90;;;;;;5111986;28;20085;-68
2023/12/30 04:53:33;;;;;;;2.47;0.80;;;8.70;99.90;;;;;;5095010;28;20115;-68
2023/12/30 04:55:59;;;;;;;12.20;1.30;;;8.70;99.90;;;;;;5095054;28;20082;-71
2023/12/30 04:58:26;;;;;;;13.25;1.30;;;8.60;99.90;;;;;;5111586;28;20031;-69
2023/12/30 05:00:52;;;;;;;3.13;1.20;;;8.60;99.90;;;;;;5095277;28;20071;-69
2023/12/30 05:03:17;;;;;;;0.20;0.20;;;8.70;99.90;;;;;;5096103;28;20675;-69
2023/12/30 05:05:43;;;;;;;7.13;1.05;;;8.70;99.90;;;;;;5111937;28;20383;-70
2023/12/30 05:08:09;;;;;;;11.25;1.55;;;8.60;99.90;;;;;;5096048;28;20048;-69
2023/12/30 05:10:36;;;;;;;3.40;0.98;;;8.60;99.90;;;;;;5096031;28;20027;-69
2023/12/30 05:13:02;;;;;;;1.70;1.60;;;8.70;99.90;;;;;;5095598;28;20028;-69
2023/12/30 05:15:28;;;;;;;5.78;1.08;;;8.70;99.90;;;;;;5095960;28;20036;-69
2023/12/30 05:17:53;;;;;;;11.73;0.43;;;8.70;99.90;;;;;;5095949;28;20111;-69
2023/12/30 05:20:20;;;;;;;0.08;0.08;;;8.60;99.90;;;;;;5094663;28;20036;-69
2023/12/30 05:22:46;;;;;;;0.00;0.00;;;8.60;99.90;;;;;;5095484;28;20107;-70
2023/12/30 05:25:13;;;;;;;4.30;1.92;;;8.60;99.90;;;;;;5095640;28;20035;-69
2023/12/30 05:27:38;;;;;;;4.38;0.73;;;8.70;99.90;;;;;;5095495;28;20012;-70
2023/12/30 05:30:07;;;;;;;0.32;0.32;;;8.60;99.90;;;;;;5094325;28;20157;-70
2023/12/30 05:32:34;;;;;;;1.55;1.27;;;8.60;99.90;;;;;;5095291;28;20111;-69
2023/12/30 05:34:59;;;;;;;4.65;0.77;;;8.60;99.90;;;;;;5095647;28;20028;-69
2023/12/30 05:37:25;;;;;;;1.02;0.75;;;8.70;99.90;;;;;;5095753;28;20379;-69
2023/12/30 05:39:51;;;;;;;0.40;0.10;;;8.70;99.90;;;;;;5081091;28;20020;-69
2023/12/30 05:42:17;;;;;;;3.70;0.88;;;8.70;99.90;;;;;;5095631;28;20047;-69
2023/12/30 05:44:43;;;;;;;3.72;1.50;;;8.70;99.90;;;;;;5094987;28;20028;-71
2023/12/30 05:47:09;;;;;;;0.40;0.40;;;8.60;99.90;;;;;;5095387;28;20024;-70
2023/12/30 05:49:40;;;;;;;3.83;1.15;;;8.80;99.90;;;;;;5094872;28;20400;-71
2023/12/30 05:52:07;;;;;;;5.20;1.30;;;8.60;99.90;;;;;;5095557;28;20111;-70
2023/12/30 05:54:34;;;;;;;0.00;0.00;;;8.60;99.90;;;;;;5093608;28;20036;-69
2023/12/30 05:57:00;;;;;;;0.57;0.57;;;8.60;99.90;;;;;;5095361;28;20396;-71
2023/12/30 05:59:26;;;;;;;12.65;2.75;;;8.60;99.90;;;;;;5093829;28;20028;-71
2023/12/30 06:01:54;;;;;;;2.00;0.50;;;8.60;99.90;;;;;;5093780;28;20077;-71
2023/12/30 06:04:20;;;;;;;0.00;0.00;;;8.50;99.90;;;;;;5106435;28;20024;-69
2023/12/30 06:06:46;;;;;;;3.42;0.20;;;8.50;99.90;;;;;;5108267;28;20019;-70
2023/12/30 06:09:12;;;;;;;4.90;1.90;;;8.60;99.90;;;;;;5105484;28;20063;-69
2023/12/30 06:11:38;;;;;;;1.65;0.63;;;8.70;99.90;;;;;;5095237;28;20027;-71
2023/12/30 06:14:04;;;;;;;4.57;0.30;;;8.70;99.90;;;;;;5093324;28;20024;-69
2023/12/30 06:16:30;;;;;;;1.30;0.45;;;8.60;99.90;;;;;;5094870;28;20036;-71
2023/12/30 06:18:56;;;;;;;0.00;0.00;;;8.60;99.90;;;;;;5095066;28;20376;-70
2023/12/30 06:21:21;;;;;;;2.05;0.57;;;8.70;99.90;;;;;;5094861;28;20123;-70
2023/12/30 06:23:47;;;;;;;1.08;0.40;;;8.70;99.90;;;;;;5094572;28;20381;-71
2023/12/30 06:26:13;;;;;;;1.45;0.25;;;8.70;99.90;;;;;;5093269;28;20028;-70
2023/12/30 06:28:39;;;;;;;1.75;1.05;;;8.80;99.90;;;;;;5089322;28;20066;-70
2023/12/30 06:31:06;;;;;;;0.00;0.00;;;8.80;99.90;;;;;;5088363;28;20028;-70
2023/12/30 06:33:32;;;;;;;0.52;0.52;;;8.80;99.90;;;;;;5100882;28;20032;-70
2023/12/30 06:35:57;;;;;;;3.05;0.68;;;8.80;99.90;;;;;;5092442;28;20115;-72
2023/12/30 06:38:23;;;;;;;0.00;0.00;;;9.00;99.90;;;;;;5093595;28;20032;-71
2023/12/30 06:40:49;;;;;;;0.00;0.00;;;9.00;99.90;;;;;;5094537;28;20024;-70
2023/12/30 06:43:16;;;;;;;0.05;0.05;;;8.90;99.90;;;;;;5094315;28;20427;-70
2023/12/30 06:45:43;;;;;;;0.10;0.10;;;9.00;99.90;;;;;;5093170;28;20046;-69
2023/12/30 06:48:09;;;;;;;0.00;0.00;;;8.80;99.90;;;;;;5094358;28;20016;-70
2023/12/30 06:50:35;;;;;;;0.08;0.08;;;8.80;99.90;;;;;;5093945;28;20115;-71
2023/12/30 06:53:01;;;;;;;0.00;0.00;;;8.90;99.90;;;;;;5103133;22;20048;-71
2023/12/30 06:55:27;;;;;;;0.00;0.00;;;8.70;99.90;;;;;;5113185;28;20115;-71
2023/12/30 06:57:53;;;;;;;0.10;0.10;;;8.70;99.90;;;;;;5112644;28;20035;-71
2023/12/30 07:00:19;;;;;;;0.10;0.10;;;8.70;99.90;;;;;;5114427;28;20027;-71
2023/12/30 07:02:46;;;;;;;0.10;0.10;;;8.90;99.90;;;;;;5112946;28;20043;-71
2023/12/30 07:05:12;;;;;;;0.32;0.13;;;8.80;99.90;;;;;;5114113;28;20106;-70
2023/12/30 07:07:38;;;;;;;0.00;0.00;;;8.70;99.90;;;;;;5114071;28;20028;-70
2023/12/30 07:10:04;;;;;;;0.00;0.00;;;8.80;99.90;;;;;;5099865;28;20514;-69
2023/12/30 07:12:30;;;;;;;0.00;0.00;;;8.70;99.90;;;;;;5112888;28;20028;-71
2023/12/30 07:14:57;;;;;;;0.00;0.00;;;8.70;99.90;;;;;;5114129;28;20038;-69
2023/12/30 07:17:23;;;;;;;0.00;0.00;;;8.70;99.90;;;;;;5112723;28;20027;-70
2023/12/30 07:19:49;;;;;;;0.20;0.20;;;8.90;99.90;;;;;;5114061;28;20094;-72
2023/12/30 07:22:19;;;;;;;0.00;0.00;;;8.80;99.90;;;;;;5113573;28;20034;-69
2023/12/30 07:24:45;;;;;;;0.80;0.32;;;8.80;99.90;;;;;;5113932;28;20380;-70
2023/12/30 07:27:11;;;;;;;0.00;0.00;;;8.70;99.90;;;;;;5114022;28;20092;-70
2023/12/30 07:29:37;;;;;;;0.00;0.00;;;8.60;99.90;;;;;;5113641;28;20032;-70
2023/12/30 07:32:03;;;;;;;0.75;0.38;;;8.70;99.90;;;;;;5111655;28;20028;-71
2023/12/30 07:34:29;;;;;;;0.00;0.00;;;8.80;99.90;;;;;;5113040;28;20482;-71
2023/12/30 07:36:56;;;;;;;1.00;0.13;;;8.80;99.90;;;;;;5113413;28;20147;-71
2023/12/30 07:39:22;;;;;;;0.00;0.00;;;8.70;99.90;;;;;;5113794;28;20015;-68
2023/12/30 07:41:49;;;;;;;0.15;0.15;;;8.90;99.90;;;;;;5113571;28;20031;-71
2023/12/30 07:44:15;;;;;;;0.25;0.25;;;9.10;99.90;;;;;;5113244;28;20464;-70
2023/12/30 07:46:41;;;;;;;0.00;0.00;;;8.90;99.90;;;;;;5079329;28;20032;-70
2023/12/30 07:49:08;;;;;;;2.22;0.65;;;8.50;99.90;;;;;;5105270;28;20107;-70
2023/12/30 07:51:34;;;;;;;5.75;3.10;;;8.60;99.90;;;;;;5103643;28;20135;-69
2023/12/30 07:54:00;;;;;;;1.75;0.70;;;8.60;99.90;;;;;;5083225;28;20123;-69
2023/12/30 07:56:26;;;;;;;1.60;1.55;;;8.60;99.90;;;;;;5110080;28;20107;-70
2023/12/30 07:58:52;;;;;;;0.70;0.40;;;8.60;99.90;;;;;;5113584;28;20027;-69
2023/12/30 08:01:18;;;;;;;0.47;0.47;;;8.60;99.90;;;;;;5113414;28;20030;-70
2023/12/30 08:03:44;;;;;;;11.27;0.88;;;8.60;99.90;;;;;;5113074;28;20050;-70
2023/12/30 08:06:09;;;;;;;11.07;1.02;;;8.60;99.90;;;;;;5113255;28;20019;-69
2023/12/30 08:08:35;;;;;;;5.70;1.20;;;8.70;99.90;;;;;;5115277;28;20028;-69
2023/12/30 08:11:01;;;;;;;0.13;0.10;;;8.70;99.90;;;;;;5117653;28;20067;-70
2023/12/30 08:13:27;;;;;;;4.28;1.17;;;8.80;99.90;;;;;;5117440;28;20016;-68
2023/12/30 08:15:53;;;;;;;4.53;0.47;;;8.80;99.90;;;;;;5117618;28;20043;-69
2023/12/30 08:18:19;;;;;;;9.73;2.08;;;8.80;99.90;;;;;;5117562;28;20020;-69
2023/12/30 08:20:45;;;;;;;5.72;0.40;;;8.80;99.90;;;;;;5117074;28;20039;-69
2023/12/30 08:23:10;;;;;;;0.00;0.00;;;8.80;99.90;;;;;;5117457;28;20027;-71
2023/12/30 08:25:36;;;;;;;14.02;2.35;;;8.90;99.90;;;;;;5117212;28;20066;-70
2023/12/30 08:28:02;;;;;;;4.38;1.23;;;8.80;99.90;;;;;;5117319;28;20036;-69
2023/12/30 08:30:28;;;;;;;4.85;0.45;;;8.90;99.90;;;;;;5117398;28;20043;-70
2023/12/30 08:32:55;;;;;;;1.30;0.17;;;8.90;99.90;;;;;;5102521;27;20031;-69
2023/12/30 08:35:20;;;;;;;0.63;0.20;;;8.90;99.90;;;;;;5117041;28;20035;-70
2023/12/30 08:37:46;;;;;;;0.38;0.38;;;9.00;99.90;;;;;;5102693;28;20035;-70
2023/12/30 08:40:14;;;;;;;0.00;0.00;;;9.00;99.90;;;;;;5117258;28;20024;-71
2023/12/30 08:42:44;;;;;;;0.65;0.40;;;9.00;99.90;;;;;;5082367;28;20029;-70
2023/12/30 08:45:18;;;;;;;13.75;2.28;;;9.10;99.90;;;;;;5117319;28;20055;-69
2023/12/30 08:47:45;;;;;;;8.10;1.02;;;9.10;99.90;;;;;;5116835;28;20031;-70
2023/12/30 08:50:11;;;;;;;9.13;1.40;;;9.30;99.90;;;;;;5116692;28;20036;-70
2023/12/30 08:52:37;;;;;;;2.92;1.08;;;9.00;99.90;;;;;;5116578;28;20499;-70
2023/12/30 08:55:09;;;;;;;11.15;3.13;;;9.00;99.90;;;;;;5116730;28;20023;-71
2023/12/30 08:57:35;;;;;;;1.60;0.95;;;9.00;99.90;;;;;;5116958;28;20039;-69
2023/12/30 09:00:08;;;;;;;1.55;1.17;;;9.00;99.90;;;;;;5116744;28;20032;-69
2023/12/30 09:02:36;;;;;;;9.20;2.05;;;9.00;99.90;;;;;;5116697;28;20046;-69
2023/12/30 09:05:04;;;;;;;1.38;0.85;;;9.10;99.90;;;;;;5116201;28;20020;-70
2023/12/30 09:07:31;;;;;;;0.45;0.25;;;9.20;99.90;;;;;;5116678;28;20077;-69
2023/12/30 09:09:58;;;;;;;0.32;0.25;;;9.20;99.90;;;;;;5104497;28;20058;-70
2023/12/30 09:12:24;;;;;;;3.90;1.65;;;9.30;99.90;;;;;;5114555;28;20099;-70
2023/12/30 09:14:50;;;;;;;5.68;2.05;;;9.50;99.90;;;;;;5116238;28;20024;-70
2023/12/30 09:17:16;;;;;;;10.05;2.00;;;9.30;99.90;;;;;;5115271;28;20047;-69
2023/12/30 09:19:42;;;;;;;0.22;0.22;;;9.40;99.90;;;;;;5115440;28;20028;-70
2023/12/30 09:22:10;;;;;;;5.93;0.95;;;9.30;99.90;;;;;;5115141;28;20102;-70
2023/12/30 09:24:37;;;;;;;12.73;0.95;;;9.50;99.90;;;;;;5109697;28;20084;-70
2023/12/30 09:27:03;;;;;;;9.50;1.83;;;9.30;99.90;;;;;;5107698;28;20361;-69
2023/12/30 09:29:29;;;;;;;3.10;1.55;;;9.60;99.90;;;;;;5115959;28;20106;-70
2023/12/30 09:31:55;;;;;;;7.15;0.82;;;9.60;99.90;;;;;;5116192;27;20137;-70
2023/12/30 09:34:20;;;;;;;2.30;1.55;;;9.60;99.90;;;;;;5115903;28;20488;-69
2023/12/30 09:36:46;;;;;;;4.68;3.28;;;9.70;99.90;;;;;;5116144;28;20031;-69
2023/12/30 09:39:12;;;;;;;0.10;0.10;;;9.60;99.90;;;;;;5115182;28;20597;-70
2023/12/30 09:41:40;;;;;;;14.57;2.80;;;9.60;99.90;;;;;;5102500;28;20026;-71
2023/12/30 09:44:07;;;;;;;9.75;4.05;;;9.70;99.90;;;;;;5114295;28;20028;-69
2023/12/30 09:46:35;;;;;;;5.68;0.73;;;9.80;99.90;;;;;;5115402;28;20102;-69
2023/12/30 09:49:03;;;;;;;18.45;2.35;;;9.80;99.90;;;;;;5115581;27;20042;-69
2023/12/30 09:51:33;;;;;;;3.17;1.83;;;10.00;99.90;;;;;;5115607;28;20064;-70
2023/12/30 09:53:59;;;;;;;5.65;1.30;;;10.10;99.90;;;;;;5115172;28;20031;-72
2023/12/30 09:56:26;;;;;;;2.75;0.80;;;10.00;99.90;;;;;;5114255;28;20043;-70
2023/12/30 09:58:55;;;;;;;0.00;0.00;;;10.10;99.90;;;;;;5115630;28;20030;-70
2023/12/30 10:01:21;;;;;;;0.35;0.28;;;10.10;99.90;;;;;;5115075;28;20520;-69
2023/12/30 10:03:47;;;;;;;3.90;1.98;;;10.20;99.90;;;;;;5115092;28;20030;-69
2023/12/30 10:06:17;;;;;;;1.23;0.57;;;10.30;99.90;;;;;;5115206;28;20117;-69
2023/12/30 10:08:44;;;;;;;5.35;1.88;;;10.30;99.90;;;;;;5112122;28;20194;-70
2023/12/30 10:11:10;;;;;;;8.88;1.98;;;10.00;99.90;;;;;;5101620;28;20095;-69
2023/12/30 10:13:37;;;;;;;1.85;1.08;;;9.90;99.90;;;;;;5115078;28;20039;-69
2023/12/30 10:16:05;;;;;;;4.72;2.13;;;10.10;99.90;;;;;;5114861;28;20475;-69
2023/12/30 10:18:38;;;;;;;0.22;0.22;;;9.70;99.90;;;;;;5115149;28;20035;-70
2023/12/30 10:21:06;;;;;;;8.38;3.72;;;9.80;99.90;;;;;;5114499;28;20032;-69
2023/12/30 10:23:33;;;;;;;0.10;0.10;;;9.70;99.90;;;;;;5115222;28;20027;-70
2023/12/30 10:26:01;;;;;;;24.48;2.08;;;9.70;99.90;;;;;;5114465;28;20529;-69
2023/12/30 10:28:27;;;;;;;1.50;0.90;;;9.80;99.90;;;;;;5114891;28;20069;-69
2023/12/30 10:31:06;;;;;;;4.88;1.10;;;9.90;99.90;;;;;;5114083;28;20437;-69
2023/12/30 10:33:34;;;;;;;0.55;0.28;;;9.90;99.90;;;;;;5114124;28;20055;-70
2023/12/30 10:36:00;;;;;;;0.28;0.28;;;9.90;99.90;;;;;;5114520;28;20028;-69
2023/12/30 10:38:26;;;;;;;0.88;0.63;;;9.80;99.90;;;;;;5114745;28;20024;-71
2023/12/30 10:40:53;;;;;;;8.10;0.80;;;10.00;99.90;;;;;;5114451;28;20032;-69
2023/12/30 10:43:19;;;;;;;10.93;2.78;;;10.00;99.90;;;;;;5113163;28;20020;-70
2023/12/30 10:45:58;;;;;;;4.65;2.05;;;9.90;99.90;;;;;;5114233;28;20020;-70
2023/12/30 10:48:33;;;;;;;1.27;0.68;;;9.90;99.90;;;;;;5086763;28;20024;-70
2023/12/30 10:51:00;;;;;;;6.72;1.58;;;9.90;99.90;;;;;;5086839;28;20032;-69
2023/12/30 10:53:39;;;;;;;9.23;3.03;;;10.00;99.90;;;;;;5101813;28;20047;-71
2023/12/30 10:56:09;;;;;;;5.40;1.80;;;10.20;99.90;;;;;;5073656;28;20197;-69
2023/12/30 10:58:36;;;;;;;3.83;1.10;;;10.20;99.90;;;;;;5084821;28;20487;-69
2023/12/30 11:01:03;;;;;;;0.10;0.10;;;10.30;99.90;;;;;;5114113;28;20063;-69
2023/12/30 11:03:31;;;;;;;4.10;1.58;;;10.60;99.90;;;;;;5095611;28;20114;-70
2023/12/30 11:06:22;;;;;;;3.20;0.77;;;10.80;99.90;;;;;;5113991;28;20024;-70
2023/12/30 11:08:51;;;;;;;0.98;0.40;;;10.80;99.90;;;;;;5111642;28;20035;-70
2023/12/30 11:11:22;;;;;;;12.23;1.92;;;11.00;99.90;;;;;;5102710;28;20020;-71
2023/12/30 11:13:48;;;;;;;2.70;1.50;;;10.70;99.90;;;;;;5111852;28;20418;-69
2023/12/30 11:16:16;;;;;;;12.23;2.30;;;10.90;99.90;;;;;;5099850;28;20036;-70
2023/12/30 11:18:53;;;;;;;0.65;0.65;;;10.90;99.90;;;;;;5113923;28;20043;-70
2023/12/30 11:21:43;;;;;;;1.23;0.85;;;11.20;99.90;;;;;;5088645;28;20031;-70
2023/12/30 11:24:11;;;;;;;3.85;1.48;;;11.40;99.90;;;;;;5113380;27;20069;-69
2023/12/30 11:26:42;;;;;;;1.67;0.65;;;11.50;99.90;;;;;;5113801;28;20016;-69
2023/12/30 11:29:16;;;;;;;;;;;11.50;99.90;;;;;;5110407;28;20031;-70
2023/12/30 11:31:43;;;;;;;0.10;0.10;;;11.40;99.90;;;;;;5091199;28;20379;-71
2023/12/30 11:34:10;;;;;;;3.40;0.90;;;11.40;99.90;;;;;;5113451;28;20073;-70
2023/12/30 11:36:39;;;;;;;0.25;0.25;;;11.40;99.90;;;;;;5113454;28;20038;-70
2023/12/30 11:39:07;;;;;;;3.20;0.60;;;11.70;99.90;;;;;;5113689;28;20072;-71
2023/12/30 11:41:35;;;;;;;2.80;0.30;;;11.90;99.90;;;;;;5113503;28;20061;-70
2023/12/30 11:44:03;;;;;;;0.40;0.35;;;12.00;99.90;;;;;;5111753;28;20039;-70
2023/12/30 11:46:30;;;;;;;12.10;2.05;;;11.60;99.90;;;;;;5113131;28;20028;-71
2023/12/30 11:48:56;;;;;;;0.98;0.52;;;12.00;99.90;;;;;;5113588;28;20019;-72
2023/12/30 11:51:30;;;;;;;0.65;0.32;;;12.20;99.90;;;;;;5113189;28;20036;-70
2023/12/30 11:53:56;;;;;;;6.75;1.45;;;12.00;99.90;;;;;;5111987;28;20480;-70
2023/12/30 11:56:23;;;;;;;3.90;1.13;;;12.00;99.90;;;;;;5112980;28;20449;-70
2023/12/30 11:58:50;;;;;;;16.67;0.75;;;12.20;99.90;;;;;;5111899;28;20032;-70
2023/12/30 12:01:18;;;;;;;2.75;0.93;;;12.50;99.90;;;;;;5084451;28;20025;-70
2023/12/30 12:03:44;;;;;;;3.60;1.27;;;12.90;99.90;;;;;;5113176;28;20556;-70
2023/12/30 12:06:14;;;;;;;4.38;1.00;;;12.10;99.90;;;;;;5113113;28;20023;-71
2023/12/30 12:08:39;;;;;;;2.78;1.50;;;11.80;99.90;;;;;;5083286;28;20039;-71
2023/12/30 12:11:09;;;;;;;2.15;1.40;;;12.10;99.90;;;;;;5100513;28;20024;-71
2023/12/30 12:13:35;;;;;;;0.05;0.05;;;12.60;99.90;;;;;;5111387;28;20054;-70
2023/12/30 12:16:01;;;;;;;7.40;2.05;;;12.60;99.90;;;;;;5112964;28;20059;-70
2023/12/30 12:18:27;;;;;;;3.85;1.08;;;13.10;99.90;;;;;;5112876;28;20027;-70
2023/12/30 12:20:53;;;;;;;2.83;0.73;;;12.50;99.90;;;;;;5112782;28;20100;-69
2023/12/30 12:23:25;;;;;;;1.65;0.98;;;12.90;99.90;;;;;;5092855;28;20438;-71
2023/12/30 12:25:51;;;;;;;;;;;13.00;99.90;;;;;;5092059;28;20032;-71
2023/12/30 12:28:23;;;;;;;9.30;1.50;;;13.00;99.90;;;;;;5095483;28;19908;-69
2023/12/30 12:30:49;;;;;;;0.47;0.35;;;12.90;99.90;;;;;;5098590;28;20491;-70
2023/12/30 12:33:18;;;;;;;7.63;1.13;;;12.60;99.90;;;;;;5084161;28;20104;-69
2023/12/30 12:35:44;;;;;;;2.65;0.73;;;13.00;99.90;;;;;;5086099;28;20024;-70
2023/12/30 12:38:10;;;;;;;0.22;0.22;;;13.30;99.90;;;;;;5104046;28;20541;-70
2023/12/30 12:40:38;;;;;;;0.63;0.40;;;13.10;99.90;;;;;;5092409;28;20089;-69
2023/12/30 12:43:06;;;;;;;5.78;1.23;;;13.50;99.90;;;;;;5092283;28;20123;-71
2023/12/30 12:45:33;;;;;;;3.63;1.10;;;13.90;99.90;;;;;;5092441;28;20121;-69
2023/12/30 12:47:59;;;;;;;1.25;0.45;;;14.20;99.90;;;;;;5090773;28;20035;-71
2023/12/30 12:50:26;;;;;;;0.65;0.30;;;14.30;99.90;;;;;;5099383;28;20028;-68
2023/12/30 12:52:52;;;;;;;4.88;1.20;;;14.40;99.90;;;;;;5078582;28;20472;-69
2023/12/30 12:55:18;;;;;;;1.45;0.50;;;14.30;99.90;;;;;;5071881;28;20070;-70